Time,TemperatureF,DewpointF,PressureIn,WindDirection,WindDirectionDegrees,WindSpeedMPH,WindSpeedGustMPH,Humidity,HourlyPrecipIn,Conditions,Clouds,dailyrainin,SolarRadiationWatts/m^2,SoftwareType,DateUTC
2013-11-06 00:01:00,35.6,31.2,30.37,North,-999,0.0,0.0,84,0.00,,,-99.99,0,WeatherLink 6.0.3,2013-11-06 05:01:00,
2013-11-06 00:02:00,35.5,31.1,30.37,ESE,121,0.0,0.0,84,0.00,,,0.00,0,Wunderground v.1.15,2013-11-06 05:02:00,
2013-11-06 00:04:00,35.4,31.0,30.37,ESE,121,0.0,0.0,84,0.00,,,0.00,0,Wunderground v.1.15,2013-11-06 05:04:00,
2013-11-06 00:09:00,35.2,30.9,30.37,ESE,121,0.0,0.0,84,0.00,,,0.00,0,Wunderground v.1.15,2013-11-06 05:09:00,
2013-11-06 00:10:00,35.2,30.9,30.37,ESE,121,0.0,0.0,84,0.00,,,0.00,0,Wunderground v.1.15,2013-11-06 05:10:00,
2013-11-06 00:16:00,34.9,30.8,30.37,ESE,121,0.0,0.0,85,0.00,,,0.00,0,Wunderground v.1.15,2013-11-06 05:16:00,
2013-11-06 00:21:00,34.7,30.7,30.37,ESE,121,0.0,0.0,85,0.00,,,0.00,0,Wunderground v.1.15,2013-11-06 05:21:00,
2013-11-06 00:27:00,34.5,30.5,30.37,ESE,121,0.0,0.0,85,0.00,,,0.00,0,Wunderground v.1.15,2013-11-06 05:27:00,
2013-11-06 00:33:00,34.3,30.5,30.37,ESE,121,0.0,0.0,86,0.00,,,0.00,0,Wunderground v.1.15,2013-11-06 05:33:00,
2013-11-06 00:39:00,34.2,30.4,30.37,ESE,121,0.0,0.0,86,0.00,,,0.00,0,Wunderground v.1.15,2013-11-06 05:39:00,
2013-11-06 00:44:00,33.9,30.4,30.36,ESE,121,0.0,0.0,87,0.00,,,0.00,0,Wunderground v.1.15,2013-11-06 05:44:00,
2013-11-06 00:49:00,33.8,30.3,30.36,ESE,121,0.0,0.0,87,0.00,,,0.00,0,Wunderground v.1.15,2013-11-06 05:49:00,
2013-11-06 00:55:00,33.8,30.6,30.36,ESE,121,0.0,0.0,88,0.00,,,0.00,0,Wunderground v.1.15,2013-11-06 05:55:00,
2013-11-06 01:00:00,33.7,30.5,30.36,ESE,121,0.0,0.0,88,0.00,,,0.00,0,Wunderground v.1.15,2013-11-06 06:00:00,
2013-11-06 01:05:00,33.6,30.4,30.36,ESE,121,0.0,0.0,88,0.00,,,0.00,0,Wunderground v.1.15,2013-11-06 06:05:00,
2013-11-06 01:11:00,33.5,30.3,30.35,ESE,121,0.0,0.0,88,0.00,,,0.00,0,Wunderground v.1.15,2013-11-06 06:11:00,
2013-11-06 01:16:00,33.5,30.3,30.35,ESE,121,0.0,0.0,88,0.00,,,0.00,0,Wunderground v.1.15,2013-11-06 06:16:00,
2013-11-06 01:21:00,33.4,30.2,30.35,ESE,121,0.0,0.0,88,0.00,,,0.00,0,Wunderground v.1.15,2013-11-06 06:21:00,
2013-11-06 01:26:00,33.4,30.2,30.35,ESE,121,0.0,0.0,88,0.00,,,0.00,0,Wunderground v.1.15,2013-11-06 06:26:00,
2013-11-06 01:32:00,33.3,30.1,30.35,North,-999,0.0,0.0,88,0.00,,,-99.99,0,WeatherLink 6.0.3,2013-11-06 06:32:00,
2013-11-06 01:37:00,33.1,29.9,30.35,ESE,121,0.0,0.0,88,0.00,,,0.00,0,Wunderground v.1.15,2013-11-06 06:37:00,
2013-11-06 01:42:00,33.0,30.1,30.35,ESE,121,0.0,0.0,89,0.00,,,0.00,0,Wunderground v.1.15,2013-11-06 06:42:00,
2013-11-06 01:47:00,33.0,30.1,30.34,ESE,121,0.0,0.0,89,0.00,,,0.00,0,Wunderground v.1.15,2013-11-06 06:47:00,
2013-11-06 01:52:00,33.0,30.1,30.34,ESE,121,0.0,0.0,89,0.00,,,0.00,0,Wunderground v.1.15,2013-11-06 06:52:00,
2013-11-06 01:58:00,33.0,30.1,30.34,ESE,121,0.0,0.0,89,0.00,,,0.00,0,Wunderground v.1.15,2013-11-06 06:58:00,
2013-11-06 02:04:00,32.9,30.0,30.33,ESE,121,0.0,0.0,89,0.00,,,0.00,0,Wunderground v.1.15,2013-11-06 07:04:00,
2013-11-06 02:09:00,32.8,29.9,30.33,ESE,121,0.0,0.0,89,0.00,,,0.00,0,Wunderground v.1.15,2013-11-06 07:09:00,
2013-11-06 02:14:00,32.7,30.1,30.33,ESE,121,0.0,0.0,90,0.00,,,0.00,0,Wunderground v.1.15,2013-11-06 07:14:00,
2013-11-06 02:19:00,32.6,30.0,30.32,ESE,121,0.0,0.0,90,0.00,,,0.00,0,Wunderground v.1.15,2013-11-06 07:19:00,
2013-11-06 02:25:00,32.6,30.0,30.32,ESE,121,0.0,0.0,90,0.00,,,0.00,0,Wunderground v.1.15,2013-11-06 07:25:00,
2013-11-06 02:31:00,32.5,29.9,30.32,North,-999,0.0,0.0,90,0.00,,,-99.99,0,WeatherLink 6.0.3,2013-11-06 07:31:00,
2013-11-06 02:36:00,32.4,29.8,30.32,ESE,121,0.0,0.0,90,0.00,,,0.00,0,Wunderground v.1.15,2013-11-06 07:36:00,
2013-11-06 02:41:00,32.3,29.7,30.31,ESE,121,0.0,0.0,90,0.00,,,0.00,0,Wunderground v.1.15,2013-11-06 07:41:00,
2013-11-06 02:46:00,32.2,29.6,30.31,ESE,121,0.0,0.0,90,0.00,,,0.00,0,Wunderground v.1.15,2013-11-06 07:46:00,
2013-11-06 02:51:00,32.2,29.6,30.31,ESE,121,0.0,0.0,90,0.00,,,0.00,0,Wunderground v.1.15,2013-11-06 07:51:00,
2013-11-06 02:57:00,32.1,29.8,30.31,ESE,121,0.0,0.0,91,0.00,,,0.00,0,Wunderground v.1.15,2013-11-06 07:57:00,
2013-11-06 03:02:00,32.1,29.8,30.31,ESE,121,0.0,0.0,91,0.00,,,0.00,0,Wunderground v.1.15,2013-11-06 08:02:00,
2013-11-06 03:07:00,32.1,29.8,30.31,ESE,121,0.0,0.0,91,0.00,,,0.00,0,Wunderground v.1.15,2013-11-06 08:07:00,
2013-11-06 03:12:00,32.1,29.8,30.30,ESE,121,0.0,0.0,91,0.00,,,0.00,0,Wunderground v.1.15,2013-11-06 08:12:00,
2013-11-06 03:17:00,32.0,29.7,30.30,ESE,121,0.0,0.0,91,0.00,,,0.00,0,Wunderground v.1.15,2013-11-06 08:17:00,
2013-11-06 03:22:00,32.0,29.7,30.30,ESE,121,0.0,0.0,91,0.00,,,0.00,0,Wunderground v.1.15,2013-11-06 08:22:00,
2013-11-06 03:27:00,31.9,29.6,30.30,ESE,121,0.0,0.0,91,0.00,,,0.00,0,Wunderground v.1.15,2013-11-06 08:27:00,
2013-11-06 03:32:00,31.9,29.6,30.30,ESE,121,0.0,0.0,91,0.00,,,0.00,0,Wunderground v.1.15,2013-11-06 08:32:00,
2013-11-06 03:37:00,31.8,29.5,30.30,ESE,121,0.0,0.0,91,0.00,,,0.00,0,Wunderground v.1.15,2013-11-06 08:37:00,
2013-11-06 03:42:00,31.7,29.4,30.30,ESE,121,0.0,0.0,91,0.00,,,0.00,0,Wunderground v.1.15,2013-11-06 08:42:00,
2013-11-06 03:48:00,31.7,29.4,30.30,ESE,121,0.0,0.0,91,0.00,,,0.00,0,Wunderground v.1.15,2013-11-06 08:48:00,
2013-11-06 03:53:00,31.7,29.6,30.29,ESE,121,0.0,0.0,92,0.00,,,0.00,0,Wunderground v.1.15,2013-11-06 08:53:00,
2013-11-06 03:58:00,31.8,29.7,30.29,ESE,121,0.0,0.0,92,0.00,,,0.00,0,Wunderground v.1.15,2013-11-06 08:58:00,
2013-11-06 04:03:00,31.8,29.7,30.29,ESE,121,0.0,0.0,92,0.00,,,0.00,0,Wunderground v.1.15,2013-11-06 09:03:00,
2013-11-06 04:08:00,31.7,29.6,30.30,ESE,121,0.0,0.0,92,0.00,,,0.00,0,Wunderground v.1.15,2013-11-06 09:08:00,
2013-11-06 04:14:00,31.7,29.6,30.30,ESE,121,0.0,0.0,92,0.00,,,0.00,0,Wunderground v.1.15,2013-11-06 09:14:00,
2013-11-06 04:19:00,31.7,29.6,30.30,ESE,121,0.0,0.0,92,0.00,,,0.00,0,Wunderground v.1.15,2013-11-06 09:19:00,
2013-11-06 04:24:00,31.7,29.6,30.29,ESE,121,0.0,0.0,92,0.00,,,0.00,0,Wunderground v.1.15,2013-11-06 09:24:00,
2013-11-06 04:29:00,31.6,29.5,30.30,ESE,121,0.0,0.0,92,0.00,,,0.00,0,Wunderground v.1.15,2013-11-06 09:29:00,
2013-11-06 04:35:00,31.6,29.5,30.30,ESE,121,0.0,0.0,92,0.00,,,0.00,0,Wunderground v.1.15,2013-11-06 09:35:00,
2013-11-06 04:40:00,31.6,29.5,30.30,ESE,121,0.0,0.0,92,0.00,,,0.00,0,Wunderground v.1.15,2013-11-06 09:40:00,
2013-11-06 04:45:00,31.6,29.5,30.30,ESE,121,0.0,0.0,92,0.00,,,0.00,0,Wunderground v.1.15,2013-11-06 09:45:00,
2013-11-06 04:50:00,31.6,29.5,30.30,ESE,121,0.0,0.0,92,0.00,,,0.00,0,Wunderground v.1.15,2013-11-06 09:50:00,
2013-11-06 04:55:00,31.6,29.5,30.29,ESE,121,0.0,0.0,92,0.00,,,0.00,0,Wunderground v.1.15,2013-11-06 09:55:00,
2013-11-06 05:00:00,31.5,29.4,30.29,ESE,121,0.0,0.0,92,0.00,,,0.00,0,Wunderground v.1.15,2013-11-06 10:00:00,
2013-11-06 05:05:00,31.6,29.8,30.29,ESE,121,0.0,0.0,93,0.00,,,0.00,0,Wunderground v.1.15,2013-11-06 10:05:00,
2013-11-06 05:11:00,31.7,29.9,30.29,ESE,121,0.0,0.0,93,0.00,,,0.00,0,Wunderground v.1.15,2013-11-06 10:11:00,
2013-11-06 05:16:00,31.9,30.1,30.29,ESE,121,0.0,0.0,93,0.00,,,0.00,0,Wunderground v.1.15,2013-11-06 10:16:00,
2013-11-06 05:21:00,31.9,30.1,30.30,ESE,121,0.0,0.0,93,0.00,,,0.00,0,Wunderground v.1.15,2013-11-06 10:21:00,
2013-11-06 05:26:00,32.0,30.2,30.30,ESE,122,0.0,0.0,93,0.00,,,0.00,0,Wunderground v.1.15,2013-11-06 10:26:00,
2013-11-06 05:32:00,32.0,30.2,30.30,ESE,121,0.0,0.0,93,0.00,,,0.00,0,Wunderground v.1.15,2013-11-06 10:32:00,
2013-11-06 05:37:00,32.1,30.3,30.30,ESE,121,0.0,0.0,93,0.00,,,0.00,0,Wunderground v.1.15,2013-11-06 10:37:00,
2013-11-06 05:42:00,32.1,30.3,30.29,ESE,121,0.0,0.0,93,0.00,,,0.00,0,Wunderground v.1.15,2013-11-06 10:42:00,
2013-11-06 05:47:00,32.1,30.3,30.29,ESE,121,0.0,0.0,93,0.00,,,0.00,0,Wunderground v.1.15,2013-11-06 10:47:00,
2013-11-06 05:52:00,32.1,30.3,30.28,ESE,121,0.0,0.0,93,0.00,,,0.00,0,Wunderground v.1.15,2013-11-06 10:52:00,
2013-11-06 05:57:00,32.1,30.3,30.28,ESE,121,0.0,0.0,93,0.00,,,0.00,0,Wunderground v.1.15,2013-11-06 10:57:00,
2013-11-06 06:02:00,32.1,30.3,30.28,ESE,121,0.0,0.0,93,0.00,,,0.00,0,Wunderground v.1.15,2013-11-06 11:02:00,
2013-11-06 06:07:00,32.1,30.3,30.28,ESE,121,0.0,0.0,93,0.00,,,0.00,0,Wunderground v.1.15,2013-11-06 11:07:00,
2013-11-06 06:13:00,32.1,30.3,30.28,ESE,121,0.0,0.0,93,0.00,,,0.00,0,Wunderground v.1.15,2013-11-06 11:13:00,
2013-11-06 06:18:00,32.1,30.3,30.28,ESE,121,0.0,0.0,93,0.00,,,0.00,0,Wunderground v.1.15,2013-11-06 11:18:00,
2013-11-06 06:24:00,32.2,30.4,30.28,ESE,121,0.0,0.0,93,0.00,,,0.00,0,Wunderground v.1.15,2013-11-06 11:24:00,
2013-11-06 06:29:00,32.2,30.4,30.27,ESE,121,0.0,0.0,93,0.00,,,0.00,0,Wunderground v.1.15,2013-11-06 11:29:00,
2013-11-06 06:34:00,32.1,30.3,30.27,ESE,121,0.0,0.0,93,0.00,,,0.00,0,Wunderground v.1.15,2013-11-06 11:34:00,
2013-11-06 06:39:00,32.1,30.3,30.27,ESE,121,0.0,0.0,93,0.00,,,0.00,0,Wunderground v.1.15,2013-11-06 11:39:00,
2013-11-06 06:44:00,32.1,30.3,30.28,ESE,121,0.0,0.0,93,0.00,,,0.00,0,Wunderground v.1.15,2013-11-06 11:44:00,
2013-11-06 06:50:00,32.1,30.3,30.28,ESE,121,0.0,0.0,93,0.00,,,0.00,0,Wunderground v.1.15,2013-11-06 11:50:00,
2013-11-06 06:55:00,32.1,30.6,30.28,ESE,122,0.0,0.0,94,0.00,,,0.00,0,Wunderground v.1.15,2013-11-06 11:55:00,
2013-11-06 07:02:00,32.1,30.6,30.27,North,-999,0.0,0.0,94,0.00,,,-99.99,1,WeatherLink 6.0.3,2013-11-06 12:02:00,
2013-11-06 07:07:00,32.1,30.6,30.27,ESE,122,0.0,0.0,94,0.00,,,0.00,7,Wunderground v.1.15,2013-11-06 12:07:00,
2013-11-06 07:12:00,32.3,30.8,30.28,ESE,121,0.0,0.0,94,0.00,,,0.00,9,Wunderground v.1.15,2013-11-06 12:12:00,
2013-11-06 07:18:00,32.5,31.0,30.27,ESE,121,0.0,0.0,94,0.00,,,0.00,11,Wunderground v.1.15,2013-11-06 12:18:00,
2013-11-06 07:23:00,32.6,31.1,30.27,ESE,121,0.0,0.0,94,0.00,,,0.00,12,Wunderground v.1.15,2013-11-06 12:23:00,
2013-11-06 07:28:00,32.7,31.2,30.27,ESE,122,0.0,0.0,94,0.00,,,0.00,16,Wunderground v.1.15,2013-11-06 12:28:00,
2013-11-06 07:34:00,32.9,31.4,30.27,ESE,121,0.0,0.0,94,0.00,,,0.00,21,Wunderground v.1.15,2013-11-06 12:34:00,
2013-11-06 07:39:00,33.2,31.9,30.27,ESE,122,0.0,0.0,95,0.00,,,0.00,26,Wunderground v.1.15,2013-11-06 12:39:00,
2013-11-06 07:45:00,33.8,32.5,30.27,ESE,121,0.0,0.0,95,0.00,,,0.00,28,Wunderground v.1.15,2013-11-06 12:45:00,
2013-11-06 07:50:00,34.4,33.1,30.27,ESE,121,0.0,0.0,95,0.00,,,0.00,33,Wunderground v.1.15,2013-11-06 12:50:00,
2013-11-06 07:55:00,35.1,33.8,30.27,ESE,121,0.0,0.0,95,0.00,,,0.00,28,Wunderground v.1.15,2013-11-06 12:55:00,
2013-11-06 08:00:00,35.6,34.6,30.26,ESE,121,0.0,0.0,96,0.00,,,0.00,33,Wunderground v.1.15,2013-11-06 13:00:00,
2013-11-06 08:05:00,36.3,35.0,30.26,ESE,121,0.0,0.0,95,0.00,,,0.00,46,Wunderground v.1.15,2013-11-06 13:05:00,
2013-11-06 08:11:00,37.1,36.1,30.26,ESE,121,0.0,0.0,96,0.00,,,0.00,35,Wunderground v.1.15,2013-11-06 13:11:00,
2013-11-06 08:16:00,38.0,37.0,30.26,ESE,121,0.0,0.0,96,0.00,,,0.00,33,Wunderground v.1.15,2013-11-06 13:16:00,
2013-11-06 08:21:00,38.6,37.6,30.26,ESE,121,0.0,0.0,96,0.00,,,0.00,35,Wunderground v.1.15,2013-11-06 13:21:00,
2013-11-06 08:26:00,39.6,38.6,30.25,ESE,121,0.0,0.0,96,0.00,,,0.00,40,Wunderground v.1.15,2013-11-06 13:26:00,
2013-11-06 08:31:00,40.9,39.8,30.25,ESE,121,0.0,0.0,96,0.00,,,0.00,69,Wunderground v.1.15,2013-11-06 13:31:00,
2013-11-06 08:36:00,42.5,41.4,30.25,ESE,121,0.0,0.0,96,0.00,,,0.00,90,Wunderground v.1.15,2013-11-06 13:36:00,
2013-11-06 08:41:00,44.2,43.1,30.25,ESE,121,0.0,0.0,96,0.00,,,0.00,90,Wunderground v.1.15,2013-11-06 13:41:00,
2013-11-06 08:46:00,46.0,44.6,30.25,ESE,121,0.0,0.0,95,0.00,,,0.00,100,Wunderground v.1.15,2013-11-06 13:46:00,
2013-11-06 08:51:00,47.8,46.2,30.25,ESE,122,0.0,0.0,94,0.00,,,0.00,97,Wunderground v.1.15,2013-11-06 13:51:00,
2013-11-06 08:56:00,49.9,47.7,30.25,ESE,123,0.0,0.0,92,0.00,,,0.00,118,Wunderground v.1.15,2013-11-06 13:56:00,
2013-11-06 09:01:00,52.0,48.6,30.25,South,185,0.0,1.0,88,0.00,,,0.00,125,Wunderground v.1.15,2013-11-06 14:01:00,
2013-11-06 09:06:00,53.7,49.3,30.25,SW,225,0.0,4.0,85,0.00,,,0.00,137,Wunderground v.1.15,2013-11-06 14:06:00,
2013-11-06 09:11:00,55.1,50.0,30.25,SW,217,1.0,1.0,83,0.00,,,0.00,148,Wunderground v.1.15,2013-11-06 14:11:00,
2013-11-06 09:16:00,56.1,50.0,30.24,SW,234,2.0,5.0,80,0.00,,,0.00,179,Wunderground v.1.15,2013-11-06 14:16:00,
2013-11-06 09:21:00,56.8,50.4,30.24,WSW,254,2.0,2.0,79,0.00,,,0.00,178,Wunderground v.1.15,2013-11-06 14:21:00,
2013-11-06 09:26:00,57.6,50.8,30.24,South,191,1.0,3.0,78,0.00,,,0.00,211,Wunderground v.1.15,2013-11-06 14:26:00,
2013-11-06 09:32:00,58.3,50.8,30.24,SW,228,2.0,2.0,76,0.00,,,0.00,197,Wunderground v.1.15,2013-11-06 14:32:00,
2013-11-06 09:37:00,58.6,50.7,30.23,SSW,198,2.0,5.0,75,0.00,,,0.00,104,Wunderground v.1.15,2013-11-06 14:37:00,
2013-11-06 09:42:00,58.8,50.5,30.23,SW,218,2.0,7.0,74,0.00,,,0.00,257,Wunderground v.1.15,2013-11-06 14:42:00,
2013-11-06 09:47:00,59.3,51.0,30.23,SSW,193,2.0,7.0,74,0.00,,,0.00,70,Wunderground v.1.15,2013-11-06 14:47:00,
2013-11-06 09:52:00,59.6,51.3,30.23,SW,221,2.0,3.0,74,0.00,,,0.00,209,Wunderground v.1.15,2013-11-06 14:52:00,
2013-11-06 09:57:00,60.0,51.3,30.23,SSW,206,1.0,3.0,73,0.00,,,0.00,251,Wunderground v.1.15,2013-11-06 14:57:00,
2013-11-06 10:02:00,60.3,51.6,30.23,SSW,209,1.0,1.0,73,0.00,,,0.00,316,Wunderground v.1.15,2013-11-06 15:02:00,
2013-11-06 10:07:00,61.0,51.9,30.22,SW,232,1.0,6.0,72,0.00,,,0.00,329,Wunderground v.1.15,2013-11-06 15:07:00,
2013-11-06 10:12:00,61.4,51.9,30.22,SSW,201,3.0,6.0,71,0.00,,,0.00,343,Wunderground v.1.15,2013-11-06 15:12:00,
2013-11-06 10:18:00,62.1,52.6,30.22,SW,227,3.0,6.0,71,0.00,,,0.00,353,Wunderground v.1.15,2013-11-06 15:18:00,
2013-11-06 10:23:00,62.6,53.1,30.21,SSW,199,3.0,4.0,71,0.00,,,0.00,367,Wunderground v.1.15,2013-11-06 15:23:00,
2013-11-06 10:28:00,63.3,53.0,30.22,West,281,1.0,4.0,69,0.00,,,0.00,396,Wunderground v.1.15,2013-11-06 15:28:00,
2013-11-06 10:33:00,64.1,52.9,30.21,SSW,209,1.0,7.0,67,0.00,,,0.00,410,Wunderground v.1.15,2013-11-06 15:33:00,
2013-11-06 10:38:00,64.4,53.2,30.21,WNW,284,2.0,7.0,67,0.00,,,0.00,427,Wunderground v.1.15,2013-11-06 15:38:00,
2013-11-06 10:44:00,65.1,53.9,30.21,WSW,243,2.0,3.0,67,0.00,,,0.00,410,Wunderground v.1.15,2013-11-06 15:44:00,
2013-11-06 10:49:00,65.9,53.4,30.20,SW,228,1.0,5.0,64,0.00,,,0.00,446,Wunderground v.1.15,2013-11-06 15:49:00,
2013-11-06 10:54:00,66.3,53.3,30.20,WSW,246,3.0,8.0,63,0.00,,,0.00,367,Wunderground v.1.15,2013-11-06 15:54:00,
2013-11-06 10:59:00,66.6,53.2,30.20,SW,227,4.0,8.0,62,0.00,,,0.00,380,Wunderground v.1.15,2013-11-06 15:59:00,
2013-11-06 11:04:00,66.7,52.8,30.19,SSW,212,4.0,5.0,61,0.00,,,0.00,427,Wunderground v.1.15,2013-11-06 16:04:00,
2013-11-06 11:09:00,66.8,53.4,30.19,SW,214,4.0,6.0,62,0.00,,,0.00,432,Wunderground v.1.15,2013-11-06 16:09:00,
2013-11-06 11:14:00,67.1,52.7,30.19,WSW,258,4.0,5.0,60,0.00,,,0.00,436,Wunderground v.1.15,2013-11-06 16:14:00,
2013-11-06 11:19:00,67.4,53.0,30.19,SW,217,3.0,6.0,60,0.00,,,0.00,441,Wunderground v.1.15,2013-11-06 16:19:00,
2013-11-06 11:24:00,67.7,52.9,30.18,SW,217,3.0,9.0,59,0.00,,,0.00,448,Wunderground v.1.15,2013-11-06 16:24:00,
2013-11-06 11:30:00,68.1,52.8,30.18,SW,216,5.0,5.0,58,0.00,,,0.00,439,Wunderground v.1.15,2013-11-06 16:30:00,
2013-11-06 11:36:00,68.6,53.2,30.18,SW,234,4.0,6.0,58,0.00,,,0.00,446,Wunderground v.1.15,2013-11-06 16:36:00,
2013-11-06 11:41:00,68.9,52.6,30.17,SSW,202,4.0,6.0,56,0.00,,,0.00,462,Wunderground v.1.15,2013-11-06 16:41:00,
2013-11-06 11:46:00,69.1,53.2,30.17,SW,223,6.0,6.0,57,0.00,,,0.00,469,Wunderground v.1.15,2013-11-06 16:46:00,
2013-11-06 11:51:00,69.4,53.0,30.17,SW,222,5.0,9.0,56,0.00,,,0.00,471,Wunderground v.1.15,2013-11-06 16:51:00,
2013-11-06 11:56:00,69.5,53.1,30.17,SW,223,4.0,9.0,56,0.00,,,0.00,475,Wunderground v.1.15,2013-11-06 16:56:00,
2013-11-06 12:01:00,69.8,53.4,30.16,South,188,4.0,6.0,56,0.00,,,0.00,482,Wunderground v.1.15,2013-11-06 17:01:00,
2013-11-06 12:06:00,70.2,53.8,30.16,SSW,210,3.0,6.0,56,0.00,,,0.00,492,Wunderground v.1.15,2013-11-06 17:06:00,
2013-11-06 12:11:00,70.6,53.6,30.16,SSW,213,3.0,5.0,55,0.00,,,0.00,489,Wunderground v.1.15,2013-11-06 17:11:00,
2013-11-06 12:16:00,70.9,53.4,30.15,SSW,194,4.0,5.0,54,0.00,,,0.00,496,Wunderground v.1.15,2013-11-06 17:16:00,
2013-11-06 12:21:00,71.1,53.1,30.15,West,276,4.0,4.0,53,0.00,,,0.00,497,Wunderground v.1.15,2013-11-06 17:21:00,
2013-11-06 12:26:00,71.3,53.3,30.15,SE,144,4.0,6.0,53,0.00,,,0.00,480,Wunderground v.1.15,2013-11-06 17:26:00,
2013-11-06 12:31:00,71.5,53.5,30.14,North,355,3.0,4.0,53,0.00,,,0.00,334,Wunderground v.1.15,2013-11-06 17:31:00,
2013-11-06 12:36:00,71.4,53.4,30.14,SW,227,4.0,8.0,53,0.00,,,0.00,248,Wunderground v.1.15,2013-11-06 17:36:00,
2013-11-06 12:41:00,71.3,53.8,30.14,SW,229,5.0,5.0,54,0.00,,,0.00,341,Wunderground v.1.15,2013-11-06 17:41:00,
2013-11-06 12:47:00,71.3,53.3,30.13,WSW,244,4.0,10.0,53,0.00,,,0.00,483,Wunderground v.1.15,2013-11-06 17:47:00,
2013-11-06 12:52:00,71.4,53.4,30.13,WSW,258,4.0,5.0,53,0.00,,,0.00,489,Wunderground v.1.15,2013-11-06 17:52:00,
2013-11-06 12:57:00,71.5,53.5,30.13,SW,234,4.0,8.0,53,0.00,,,0.00,436,Wunderground v.1.15,2013-11-06 17:57:00,
2013-11-06 13:02:00,71.5,52.9,30.12,SW,230,4.0,4.0,52,0.00,,,0.00,403,Wunderground v.1.15,2013-11-06 18:02:00,
2013-11-06 13:07:00,71.6,53.6,30.12,SSW,201,3.0,4.0,53,0.00,,,0.00,255,Wunderground v.1.15,2013-11-06 18:07:00,
2013-11-06 13:12:00,71.9,54.3,30.11,SSW,208,1.0,3.0,54,0.00,,,0.00,279,Wunderground v.1.15,2013-11-06 18:12:00,
2013-11-06 13:17:00,72.2,54.6,30.11,SW,219,2.0,5.0,54,0.00,,,0.00,309,Wunderground v.1.15,2013-11-06 18:17:00,
2013-11-06 13:23:00,72.1,53.5,30.11,SW,221,4.0,10.0,52,0.00,,,0.00,288,Wunderground v.1.15,2013-11-06 18:23:00,
2013-11-06 13:28:00,71.8,54.3,30.10,WSW,252,4.0,10.0,54,0.00,,,0.00,283,Wunderground v.1.15,2013-11-06 18:28:00,
2013-11-06 13:33:00,72.0,53.9,30.10,WSW,242,3.0,4.0,53,0.00,,,0.00,279,Wunderground v.1.15,2013-11-06 18:33:00,
2013-11-06 13:38:00,72.3,54.2,30.10,SSW,211,3.0,8.0,53,0.00,,,0.00,316,Wunderground v.1.15,2013-11-06 18:38:00,
2013-11-06 13:43:00,72.6,54.0,30.09,West,280,3.0,4.0,52,0.00,,,0.00,214,Wunderground v.1.15,2013-11-06 18:43:00,
2013-11-06 13:48:00,72.8,53.6,30.09,SW,230,3.0,5.0,51,0.00,,,0.00,100,Wunderground v.1.15,2013-11-06 18:48:00,
2013-11-06 13:53:00,72.8,54.1,30.08,SW,221,2.0,4.0,52,0.00,,,0.00,111,Wunderground v.1.15,2013-11-06 18:53:00,
2013-11-06 13:58:00,72.6,53.4,30.08,SSW,202,2.0,5.0,51,0.00,,,0.00,120,Wunderground v.1.15,2013-11-06 18:58:00,
2013-11-06 14:04:00,72.6,54.0,30.08,WSW,252,3.0,7.0,52,0.00,,,0.00,83,Wunderground v.1.15,2013-11-06 19:04:00,
2013-11-06 14:09:00,72.6,54.5,30.08,WSW,247,4.0,7.0,53,0.00,,,0.00,142,Wunderground v.1.15,2013-11-06 19:09:00,
2013-11-06 14:14:00,72.5,54.4,30.08,SW,220,3.0,9.0,53,0.00,,,0.00,195,Wunderground v.1.15,2013-11-06 19:14:00,
2013-11-06 14:19:00,72.6,54.5,30.08,SW,233,2.0,9.0,53,0.00,,,0.00,295,Wunderground v.1.15,2013-11-06 19:19:00,
2013-11-06 14:24:00,72.7,54.6,30.07,SSW,194,2.0,4.0,53,0.00,,,0.00,162,Wunderground v.1.15,2013-11-06 19:24:00,
2013-11-06 14:29:00,72.6,54.0,30.07,SSW,207,3.0,5.0,52,0.00,,,0.00,188,Wunderground v.1.15,2013-11-06 19:29:00,
2013-11-06 14:34:00,72.3,53.7,30.07,SW,223,4.0,9.0,52,0.00,,,0.00,163,Wunderground v.1.15,2013-11-06 19:34:00,
2013-11-06 14:39:00,72.1,53.5,30.06,WSW,247,4.0,9.0,52,0.00,,,0.00,121,Wunderground v.1.15,2013-11-06 19:39:00,
2013-11-06 14:45:00,72.1,54.0,30.06,SSW,212,1.0,4.0,53,0.00,,,0.00,95,Wunderground v.1.15,2013-11-06 19:45:00,
2013-11-06 14:50:00,71.9,53.8,30.06,SW,219,1.0,1.0,53,0.00,,,0.00,74,Wunderground v.1.15,2013-11-06 19:50:00,
2013-11-06 14:55:00,71.8,54.3,30.06,SW,219,1.0,2.0,54,0.00,,,0.00,105,Wunderground v.1.15,2013-11-06 19:55:00,
2013-11-06 15:00:00,71.7,54.2,30.06,SW,217,1.0,1.0,54,0.00,,,0.00,95,Wunderground v.1.15,2013-11-06 20:00:00,
2013-11-06 15:05:00,71.7,54.2,30.06,West,274,1.0,2.0,54,0.00,,,0.00,60,Wunderground v.1.15,2013-11-06 20:05:00,
2013-11-06 15:11:00,71.6,54.1,30.06,WSW,246,2.0,2.0,54,0.00,,,0.00,60,Wunderground v.1.15,2013-11-06 20:11:00,
2013-11-06 15:16:00,71.5,54.0,30.06,West,261,3.0,5.0,54,0.00,,,0.00,53,Wunderground v.1.15,2013-11-06 20:16:00,
2013-11-06 15:21:00,71.4,54.9,30.06,SW,235,1.0,1.0,56,0.00,,,0.00,109,Wunderground v.1.15,2013-11-06 20:21:00,
2013-11-06 15:26:00,71.3,54.8,30.06,WSW,248,1.0,2.0,56,0.00,,,0.00,67,Wunderground v.1.15,2013-11-06 20:26:00,
2013-11-06 15:31:00,71.2,54.7,30.05,SW,215,1.0,1.0,56,0.00,,,0.00,120,Wunderground v.1.15,2013-11-06 20:31:00,
2013-11-06 15:37:00,71.3,54.8,30.05,SSW,211,1.0,7.0,56,0.00,,,0.00,160,Wunderground v.1.15,2013-11-06 20:37:00,
2013-11-06 15:42:00,71.4,54.4,30.05,SW,221,2.0,3.0,55,0.00,,,0.00,77,Wunderground v.1.15,2013-11-06 20:42:00,
2013-11-06 15:47:00,71.5,54.5,30.05,WSW,240,2.0,3.0,55,0.00,,,0.00,67,Wunderground v.1.15,2013-11-06 20:47:00,
2013-11-06 15:52:00,71.4,54.4,30.05,WSW,239,1.0,3.0,55,0.00,,,0.00,62,Wunderground v.1.15,2013-11-06 20:52:00,
2013-11-06 15:57:00,71.3,54.8,30.05,SW,235,2.0,5.0,56,0.00,,,0.00,47,Wunderground v.1.15,2013-11-06 20:57:00,
2013-11-06 16:02:00,71.2,54.7,30.05,West,271,1.0,1.0,56,0.00,,,0.00,51,Wunderground v.1.15,2013-11-06 21:02:00,
2013-11-06 16:07:00,71.1,54.6,30.04,WSW,242,0.0,3.0,56,0.00,,,0.00,42,Wunderground v.1.15,2013-11-06 21:07:00,
2013-11-06 16:12:00,71.0,55.5,30.04,WSW,242,0.0,0.0,58,0.00,,,0.00,30,Wunderground v.1.15,2013-11-06 21:12:00,
2013-11-06 16:17:00,70.8,54.8,30.04,SW,235,0.0,3.0,57,0.00,,,0.00,42,Wunderground v.1.15,2013-11-06 21:17:00,
2013-11-06 16:22:00,70.7,54.7,30.04,WSW,245,1.0,3.0,57,0.00,,,0.00,33,Wunderground v.1.15,2013-11-06 21:22:00,
2013-11-06 16:27:00,70.6,54.1,30.04,SW,215,2.0,3.0,56,0.00,,,0.00,25,Wunderground v.1.15,2013-11-06 21:27:00,
2013-11-06 16:33:00,70.5,54.5,30.03,WSW,248,1.0,3.0,57,0.00,,,0.00,16,Wunderground v.1.15,2013-11-06 21:33:00,
2013-11-06 16:38:00,70.3,54.3,30.03,SSW,213,1.0,3.0,57,0.00,,,0.00,11,Wunderground v.1.15,2013-11-06 21:38:00,
2013-11-06 16:43:00,70.2,54.2,30.03,SW,235,1.0,1.0,57,0.00,,,0.00,12,Wunderground v.1.15,2013-11-06 21:43:00,
2013-11-06 16:48:00,70.1,54.6,30.03,SW,225,1.0,2.0,58,0.00,,,0.00,18,Wunderground v.1.15,2013-11-06 21:48:00,
2013-11-06 16:53:00,69.9,54.4,30.03,SSW,213,1.0,1.0,58,0.00,,,0.00,14,Wunderground v.1.15,2013-11-06 21:53:00,
2013-11-06 16:58:00,69.8,54.4,30.02,SW,215,1.0,1.0,58,0.00,,,0.00,11,Wunderground v.1.15,2013-11-06 21:58:00,
2013-11-06 17:04:00,69.6,54.6,30.02,SW,215,0.0,1.0,59,0.00,,,0.00,5,Wunderground v.1.15,2013-11-06 22:04:00,
2013-11-06 17:09:00,69.3,54.4,30.01,SW,215,0.0,1.0,59,0.00,,,0.00,0,Wunderground v.1.15,2013-11-06 22:09:00,
2013-11-06 17:15:00,69.0,54.1,30.02,SW,215,0.0,0.0,59,0.00,,,0.00,0,Wunderground v.1.15,2013-11-06 22:15:00,
2013-11-06 17:20:00,68.7,54.3,30.02,SW,215,0.0,0.0,60,0.00,,,0.00,0,Wunderground v.1.15,2013-11-06 22:20:00,
2013-11-06 17:25:00,68.4,54.4,30.01,SW,215,0.0,0.0,61,0.00,,,0.00,0,Wunderground v.1.15,2013-11-06 22:25:00,
2013-11-06 17:30:00,67.9,54.0,30.01,SW,215,0.0,0.0,61,0.00,,,0.00,0,Wunderground v.1.15,2013-11-06 22:30:00,
2013-11-06 17:35:00,67.4,54.4,30.01,SW,215,0.0,0.0,63,0.00,,,0.00,0,Wunderground v.1.15,2013-11-06 22:35:00,
2013-11-06 17:40:00,66.8,53.8,30.01,SW,215,0.0,0.0,63,0.00,,,0.00,0,Wunderground v.1.15,2013-11-06 22:40:00,
2013-11-06 17:45:00,66.3,54.2,30.01,SW,215,0.0,0.0,65,0.00,,,0.00,0,Wunderground v.1.15,2013-11-06 22:45:00,
2013-11-06 17:50:00,65.8,54.1,30.02,SW,215,0.0,0.0,66,0.00,,,0.00,0,Wunderground v.1.15,2013-11-06 22:50:00,
2013-11-06 17:55:00,65.4,54.2,30.01,SW,215,0.0,0.0,67,0.00,,,0.00,0,Wunderground v.1.15,2013-11-06 22:55:00,
2013-11-06 18:01:00,65.0,53.8,30.01,North,-999,0.0,0.0,67,0.00,,,-99.99,0,WeatherLink 6.0.3,2013-11-06 23:01:00,
2013-11-06 18:06:00,64.6,54.2,30.01,SW,215,0.0,0.0,69,0.00,,,0.00,0,Wunderground v.1.15,2013-11-06 23:06:00,
2013-11-06 18:12:00,64.1,53.7,30.01,SW,215,0.0,0.0,69,0.00,,,0.00,0,Wunderground v.1.15,2013-11-06 23:12:00,
2013-11-06 18:17:00,63.8,53.8,30.01,SW,215,0.0,0.0,70,0.00,,,0.00,0,Wunderground v.1.15,2013-11-06 23:17:00,
2013-11-06 18:22:00,63.4,53.8,30.01,SW,215,0.0,0.0,71,0.00,,,0.00,0,Wunderground v.1.15,2013-11-06 23:22:00,
2013-11-06 18:27:00,63.1,53.9,30.01,SW,215,0.0,0.0,72,0.00,,,0.00,0,Wunderground v.1.15,2013-11-06 23:27:00,
2013-11-06 18:32:00,62.8,53.6,30.00,SW,215,0.0,0.0,72,0.00,,,0.00,0,Wunderground v.1.15,2013-11-06 23:32:00,
2013-11-06 18:37:00,62.6,53.8,30.00,SW,215,0.0,0.0,73,0.00,,,0.00,0,Wunderground v.1.15,2013-11-06 23:37:00,
2013-11-06 18:42:00,62.3,53.5,30.00,SW,215,0.0,0.0,73,0.00,,,0.00,0,Wunderground v.1.15,2013-11-06 23:42:00,
2013-11-06 18:47:00,62.0,53.6,29.99,SW,215,0.0,0.0,74,0.00,,,0.00,0,Wunderground v.1.15,2013-11-06 23:47:00,
2013-11-06 18:53:00,61.7,53.3,29.99,SW,215,0.0,0.0,74,0.00,,,0.00,0,Wunderground v.1.15,2013-11-06 23:53:00,
2013-11-06 18:58:00,61.6,52.9,29.99,SW,215,0.0,0.0,73,0.00,,,0.00,0,Wunderground v.1.15,2013-11-06 23:58:00,
2013-11-06 19:03:00,61.6,52.9,29.98,SW,215,0.0,0.0,73,0.00,,,0.00,0,Wunderground v.1.15,2013-11-07 00:03:00,
2013-11-06 19:08:00,61.8,53.1,29.98,SSW,212,0.0,1.0,73,0.00,,,0.00,0,Wunderground v.1.15,2013-11-07 00:08:00,
2013-11-06 19:13:00,62.1,53.0,29.98,SSW,212,0.0,0.0,72,0.00,,,0.00,0,Wunderground v.1.15,2013-11-07 00:13:00,
2013-11-06 19:18:00,62.4,52.9,29.98,SSW,212,0.0,0.0,71,0.00,,,0.00,0,Wunderground v.1.15,2013-11-07 00:18:00,
2013-11-06 19:24:00,62.7,52.8,29.98,SSW,212,0.0,0.0,70,0.00,,,0.00,0,Wunderground v.1.15,2013-11-07 00:24:00,
2013-11-06 19:30:00,63.0,53.4,29.98,SSW,212,0.0,0.0,71,0.00,,,0.00,0,Wunderground v.1.15,2013-11-07 00:30:00,
2013-11-06 19:35:00,63.1,53.2,29.97,SSW,212,0.0,0.0,70,0.00,,,0.00,0,Wunderground v.1.15,2013-11-07 00:35:00,
2013-11-06 19:40:00,63.2,53.3,29.97,SSW,212,0.0,0.0,70,0.00,,,0.00,0,Wunderground v.1.15,2013-11-07 00:40:00,
2013-11-06 19:45:00,63.3,53.3,29.97,SSW,212,0.0,0.0,70,0.00,,,0.00,0,Wunderground v.1.15,2013-11-07 00:45:00,
2013-11-06 19:50:00,63.3,53.3,29.97,SSW,212,0.0,0.0,70,0.00,,,0.00,0,Wunderground v.1.15,2013-11-07 00:50:00,
2013-11-06 19:55:00,63.4,53.0,29.97,SSW,212,0.0,0.0,69,0.00,,,0.00,0,Wunderground v.1.15,2013-11-07 00:55:00,
2013-11-06 20:00:00,63.6,53.6,29.97,SSW,212,0.0,0.0,70,0.00,,,0.00,0,Wunderground v.1.15,2013-11-07 01:00:00,
2013-11-06 20:05:00,63.7,54.1,29.97,SSW,212,0.0,1.0,71,0.00,,,0.00,0,Wunderground v.1.15,2013-11-07 01:05:00,
2013-11-06 20:11:00,63.9,53.5,29.96,SW,215,0.0,0.0,69,0.00,,,0.00,0,Wunderground v.1.15,2013-11-07 01:11:00,
2013-11-06 20:16:00,64.1,53.7,29.96,SW,215,0.0,1.0,69,0.00,,,0.00,0,Wunderground v.1.15,2013-11-07 01:16:00,
2013-11-06 20:21:00,64.4,54.0,29.96,SW,215,0.0,0.0,69,0.00,,,0.00,0,Wunderground v.1.15,2013-11-07 01:21:00,
2013-11-06 20:26:00,64.6,53.8,29.96,SW,215,0.0,2.0,68,0.00,,,0.00,0,Wunderground v.1.15,2013-11-07 01:26:00,
2013-11-06 20:31:00,65.0,53.8,29.96,SW,218,0.0,1.0,67,0.00,,,0.00,0,Wunderground v.1.15,2013-11-07 01:31:00,
2013-11-06 20:37:00,65.3,54.5,29.96,SW,214,0.0,3.0,68,0.00,,,0.00,0,Wunderground v.1.15,2013-11-07 01:37:00,
2013-11-06 20:42:00,65.5,53.8,29.95,SW,215,1.0,4.0,66,0.00,,,0.00,0,Wunderground v.1.15,2013-11-07 01:42:00,
2013-11-06 20:47:00,66.1,54.0,29.95,SSW,209,2.0,7.0,65,0.00,,,0.00,0,Wunderground v.1.15,2013-11-07 01:47:00,
2013-11-06 20:52:00,66.5,53.9,29.95,SSW,192,2.0,2.0,64,0.00,,,0.00,0,Wunderground v.1.15,2013-11-07 01:52:00,
2013-11-06 20:57:00,66.9,53.9,29.96,SW,217,2.0,5.0,63,0.00,,,0.00,0,Wunderground v.1.15,2013-11-07 01:57:00,
2013-11-06 21:02:00,67.1,54.1,29.95,SW,221,2.0,7.0,63,0.00,,,0.00,0,Wunderground v.1.15,2013-11-07 02:02:00,
2013-11-06 21:07:00,67.3,54.3,29.95,SSW,196,2.0,7.0,63,0.00,,,0.00,0,Wunderground v.1.15,2013-11-07 02:07:00,
2013-11-06 21:13:00,67.4,54.4,29.94,SE,143,2.0,2.0,63,0.00,,,0.00,0,Wunderground v.1.15,2013-11-07 02:13:00,
2013-11-06 21:18:00,67.4,54.4,29.94,SSW,201,2.0,7.0,63,0.00,,,0.00,0,Wunderground v.1.15,2013-11-07 02:18:00,
2013-11-06 21:23:00,67.3,54.3,29.94,SW,226,2.0,2.0,63,0.00,,,0.00,0,Wunderground v.1.15,2013-11-07 02:23:00,
2013-11-06 21:28:00,67.2,53.7,29.94,SW,216,1.0,3.0,62,0.00,,,0.00,0,Wunderground v.1.15,2013-11-07 02:28:00,
2013-11-06 21:33:00,67.2,54.2,29.94,SSW,196,1.0,3.0,63,0.00,,,0.00,0,Wunderground v.1.15,2013-11-07 02:33:00,
2013-11-06 21:39:00,67.1,53.6,29.95,SSW,208,1.0,3.0,62,0.00,,,0.00,0,Wunderground v.1.15,2013-11-07 02:39:00,
2013-11-06 21:44:00,67.1,54.1,29.95,SSW,198,2.0,4.0,63,0.00,,,0.00,0,Wunderground v.1.15,2013-11-07 02:44:00,
2013-11-06 21:49:00,67.1,54.1,29.95,WSW,244,2.0,8.0,63,0.00,,,0.00,0,Wunderground v.1.15,2013-11-07 02:49:00,
2013-11-06 21:55:00,67.1,53.6,29.95,South,176,2.0,2.0,62,0.00,,,0.00,0,Wunderground v.1.15,2013-11-07 02:55:00,
2013-11-06 22:00:00,67.0,54.0,29.95,West,274,2.0,2.0,63,0.00,,,0.00,0,Wunderground v.1.15,2013-11-07 03:00:00,
2013-11-06 22:06:00,66.9,53.9,29.95,WSW,237,1.0,2.0,63,0.00,,,0.00,0,Wunderground v.1.15,2013-11-07 03:06:00,
2013-11-06 22:11:00,66.8,53.8,29.95,WSW,240,1.0,4.0,63,0.00,,,0.00,0,Wunderground v.1.15,2013-11-07 03:11:00,
2013-11-06 22:17:00,66.8,54.2,29.95,WSW,241,2.0,4.0,64,0.00,,,0.00,0,Wunderground v.1.15,2013-11-07 03:17:00,
2013-11-06 22:22:00,66.8,54.7,29.95,SW,236,2.0,3.0,65,0.00,,,0.00,0,Wunderground v.1.15,2013-11-07 03:22:00,
2013-11-06 22:27:00,66.8,55.1,29.95,West,275,2.0,9.0,66,0.00,,,0.00,0,Wunderground v.1.15,2013-11-07 03:27:00,
2013-11-06 22:33:00,66.7,55.0,29.95,West,259,2.0,2.0,66,0.00,,,0.00,0,Wunderground v.1.15,2013-11-07 03:33:00,
2013-11-06 22:39:00,66.5,55.2,29.95,WSW,252,1.0,4.0,67,0.00,,,0.00,0,Wunderground v.1.15,2013-11-07 03:39:00,
2013-11-06 22:44:00,66.3,55.0,29.95,West,275,2.0,2.0,67,0.00,,,0.00,0,Wunderground v.1.15,2013-11-07 03:44:00,
2013-11-06 22:50:00,66.1,55.6,29.95,WNW,294,0.0,0.0,69,0.00,,,0.00,0,Wunderground v.1.15,2013-11-07 03:50:00,
2013-11-06 22:55:00,65.9,55.4,29.95,West,264,0.0,1.0,69,0.00,,,0.00,0,Wunderground v.1.15,2013-11-07 03:55:00,
2013-11-06 23:01:00,65.7,56.0,29.95,West,270,1.0,12.0,71,0.00,,,-99.99,0,WeatherLink 6.0.3,2013-11-07 04:01:00,
2013-11-06 23:06:00,65.4,56.5,29.95,NW,313,1.0,3.0,73,0.00,,,0.00,0,Wunderground v.1.15,2013-11-07 04:06:00,
2013-11-06 23:11:00,65.0,56.9,29.95,NNW,331,1.0,4.0,75,0.00,,,0.00,0,Wunderground v.1.15,2013-11-07 04:11:00,
2013-11-06 23:16:00,64.5,57.1,29.95,WNW,286,3.0,6.0,77,0.00,,,0.00,0,Wunderground v.1.15,2013-11-07 04:16:00,
2013-11-06 23:21:00,63.9,57.3,29.95,NW,312,2.0,3.0,79,0.00,,,0.00,0,Wunderground v.1.15,2013-11-07 04:21:00,
2013-11-06 23:27:00,63.4,57.5,29.95,NW,306,1.0,3.0,81,0.00,,,0.00,0,Wunderground v.1.15,2013-11-07 04:27:00,
2013-11-06 23:32:00,63.1,57.2,29.95,WNW,296,1.0,1.0,81,0.00,,,0.00,0,Wunderground v.1.15,2013-11-07 04:32:00,
2013-11-06 23:37:00,62.7,57.5,29.95,NW,316,1.0,1.0,83,0.00,,,0.00,0,Wunderground v.1.15,2013-11-07 04:37:00,
2013-11-06 23:42:00,62.4,57.8,29.95,WNW,300,1.0,2.0,85,0.00,,,0.00,0,Wunderground v.1.15,2013-11-07 04:42:00,
2013-11-06 23:47:00,61.8,57.9,29.95,West,277,1.0,2.0,87,0.00,,,0.00,0,Wunderground v.1.15,2013-11-07 04:47:00,
2013-11-06 23:52:00,61.4,57.8,29.95,West,279,1.0,1.0,88,0.00,,,0.01,0,Wunderground v.1.15,2013-11-07 04:52:00,
2013-11-06 23:58:00,60.9,57.6,29.95,WNW,295,0.0,2.0,89,0.07,,,0.02,0,Wunderground v.1.15,2013-11-07 04:58:00,